createdAt,value
2022-12-13T00:09:06.868Z,11.50
2022-12-13T00:23:06.871Z,10.80
2022-12-13T00:37:06.884Z,9.20
2022-12-13T00:51:06.922Z,9.00
2022-12-13T01:05:06.946Z,7.90
2022-12-13T01:19:06.943Z,8.10
2022-12-13T01:33:13.831Z,5.90
2022-12-13T01:47:07.249Z,6.20
2022-12-13T02:01:07.308Z,5.60
2022-12-13T02:15:07.317Z,6.20
2022-12-13T02:29:07.292Z,4.60
2022-12-13T02:43:07.283Z,5.10
2022-12-13T02:57:07.286Z,4.40
2022-12-13T03:11:07.302Z,4.40
2022-12-13T03:25:07.273Z,4.40
2022-12-13T03:39:07.315Z,4.30
2022-12-13T03:53:07.309Z,4.60
2022-12-13T04:07:22.158Z,5.00
2022-12-13T04:21:07.339Z,5.50
2022-12-13T04:35:07.343Z,4.10
2022-12-13T04:49:07.339Z,4.30
2022-12-13T05:03:07.349Z,4.30
2022-12-13T05:17:07.360Z,3.80
2022-12-13T05:31:22.787Z,3.70
2022-12-13T05:45:07.356Z,4.20
2022-12-13T05:59:07.510Z,3.40
2022-12-13T06:13:10.645Z,5.50
2022-12-13T06:27:07.862Z,8.40
2022-12-13T06:41:07.859Z,11.50
2022-12-13T06:57:07.875Z,12.20
2022-12-13T07:12:07.875Z,10.10
2022-12-13T07:27:07.874Z,10.20
2022-12-13T07:42:07.899Z,11.20
2022-12-13T07:57:07.899Z,10.00
2022-12-13T08:12:08.035Z,8.40
2022-12-13T08:27:08.451Z,10.60
2022-12-13T08:42:14.574Z,11.10
2022-12-13T08:57:08.758Z,12.20
2022-12-13T09:12:10.612Z,9.70
2022-12-13T09:27:09.073Z,11.60
2022-12-13T09:42:10.060Z,10.25
2022-12-13T09:57:08.770Z,9.00
2022-12-13T10:12:08.827Z,7.80
2022-12-13T10:27:08.800Z,7.10
2022-12-13T10:43:09.131Z,8.40
2022-12-13T10:57:08.979Z,7.00
2022-12-13T11:12:08.961Z,5.50
2022-12-13T11:27:09.142Z,5.25
2022-12-13T11:42:09.097Z,6.70
2022-12-13T11:58:09.091Z,6.00
2022-12-13T12:13:09.071Z,7.20
2022-12-13T12:28:09.129Z,15.20
2022-12-13T12:43:15.641Z,18.80
2022-12-13T12:58:09.318Z,20.70
2022-12-13T13:13:11.884Z,20.80
2022-12-13T13:28:09.343Z,21.50
2022-12-13T13:43:09.520Z,24.20
2022-12-13T13:58:10.597Z,19.70
2022-12-13T14:13:09.488Z,19.85
2022-12-13T14:28:09.559Z,16.60
2022-12-13T14:43:09.673Z,16.00
2022-12-13T14:58:09.619Z,16.10
2022-12-13T15:13:09.627Z,16.60
2022-12-13T15:29:10.872Z,19.80
2022-12-13T15:44:09.637Z,18.60
2022-12-13T15:59:09.645Z,18.90
2022-12-13T16:13:09.846Z,18.75
2022-12-13T16:27:09.749Z,14.50
2022-12-13T16:41:10.008Z,19.40
2022-12-13T16:55:09.985Z,16.30
2022-12-13T17:09:09.947Z,13.60
2022-12-13T17:23:13.285Z,12.40
2022-12-13T17:37:10.512Z,13.20
2022-12-13T17:51:10.099Z,11.65
2022-12-13T18:05:13.218Z,10.35
2022-12-13T18:19:09.991Z,11.80
2022-12-13T18:33:10.016Z,9.50
2022-12-13T18:47:10.029Z,11.40
2022-12-13T19:01:10.310Z,9.40
2022-12-13T19:15:10.232Z,12.50
2022-12-13T19:29:10.306Z,10.40
2022-12-13T19:43:10.325Z,7.70
2022-12-13T19:57:10.345Z,10.20
2022-12-13T20:12:10.369Z,21.10
2022-12-13T20:26:10.475Z,25.70
2022-12-13T20:40:10.392Z,23.30
2022-12-13T20:54:10.383Z,26.80
2022-12-13T21:08:10.393Z,23.50
2022-12-13T21:22:10.399Z,20.30
2022-12-13T21:36:10.401Z,20.20
2022-12-13T21:50:10.433Z,16.10
2022-12-13T22:04:10.415Z,15.60
2022-12-13T22:18:10.408Z,13.20
2022-12-13T22:32:10.449Z,13.20
2022-12-13T22:46:10.465Z,13.10
2022-12-13T23:00:10.454Z,11.70
2022-12-13T23:14:10.469Z,10.70
2022-12-13T23:28:10.494Z,10.30
2022-12-13T23:42:10.666Z,9.80
2022-12-13T23:56:10.668Z,9.70
